createdAt,value
2019-02-07T00:03:22.040Z,6.17
2019-02-07T00:08:26.849Z,6.07
2019-02-07T00:13:34.786Z,9.20
2019-02-07T00:18:39.814Z,9.60
2019-02-07T00:23:44.568Z,7.13
2019-02-07T00:28:51.417Z,7.67
2019-02-07T00:33:57.665Z,8.50
2019-02-07T00:39:02.533Z,6.80
2019-02-07T00:44:09.028Z,8.40
2019-02-07T00:49:14.561Z,9.73
2019-02-07T00:54:19.345Z,7.23
2019-02-07T00:59:27.335Z,7.60
2019-02-07T01:04:34.459Z,5.90
2019-02-07T01:09:39.314Z,6.27
2019-02-07T01:14:45.701Z,7.00
2019-02-07T01:19:50.739Z,6.50
2019-02-07T01:24:55.479Z,8.50
2019-02-07T01:30:03.971Z,6.93
2019-02-07T01:35:09.405Z,7.33
2019-02-07T01:40:16.394Z,7.67
2019-02-07T01:45:21.544Z,7.43
2019-02-07T01:50:29.168Z,8.40
2019-02-07T01:55:35.573Z,7.53
2019-02-07T02:00:41.621Z,6.37
2019-02-07T02:05:49.640Z,6.80
2019-02-07T02:10:54.932Z,7.50
2019-02-07T02:15:59.696Z,6.37
2019-02-07T02:21:06.372Z,7.73
2019-02-07T02:26:11.461Z,9.77
2019-02-07T02:31:16.437Z,8.63
2019-02-07T02:36:22.899Z,10.03
2019-02-07T02:41:28.534Z,5.80
2019-02-07T02:46:33.533Z,5.67
2019-02-07T02:51:38.348Z,8.03
2019-02-07T02:56:44.773Z,7.40
2019-02-07T03:02:06.713Z,7.07
2019-02-07T03:07:32.117Z,8.80
2019-02-07T03:12:54.801Z,9.37
2019-02-07T03:18:29.288Z,8.03
2019-02-07T03:24:02.288Z,10.17
2019-02-07T03:29:38.340Z,8.90
2019-02-07T03:35:00.921Z,8.77
2019-02-07T03:40:32.490Z,8.10
2019-02-07T03:45:45.324Z,9.10
2019-02-07T03:51:06.983Z,10.00
2019-02-07T03:56:30.909Z,9.40
2019-02-07T04:01:53.708Z,8.90
2019-02-07T04:07:10.772Z,8.13
2019-02-07T04:12:26.772Z,7.50
2019-02-07T04:17:48.449Z,8.40
2019-02-07T04:23:07.577Z,11.57
2019-02-07T04:28:30.537Z,9.87
2019-02-07T04:33:53.549Z,8.80
2019-02-07T04:39:17.292Z,7.80
2019-02-07T04:44:37.544Z,10.03
2019-02-07T04:49:53.609Z,11.90
2019-02-07T04:55:20.248Z,8.93
2019-02-07T05:00:40.480Z,8.47
2019-02-07T05:06:17.173Z,8.83
2019-02-07T05:11:56.377Z,9.10
2019-02-07T05:17:08.100Z,10.73
2019-02-07T05:22:24.336Z,13.10
2019-02-07T05:27:40.252Z,12.40
2019-02-07T05:33:19.092Z,9.63
2019-02-07T05:38:35.348Z,9.67
2019-02-07T05:43:59.200Z,11.70
2019-02-07T05:49:21.653Z,8.70
2019-02-07T05:54:57.095Z,11.97
2019-02-07T06:00:34.461Z,12.40
2019-02-07T06:05:56.976Z,11.20
2019-02-07T06:11:26.996Z,10.47
2019-02-07T06:16:41.649Z,9.93
2019-02-07T06:22:14.691Z,8.83
2019-02-07T06:27:37.373Z,10.53
2019-02-07T06:33:01.378Z,11.83
2019-02-07T06:38:31.347Z,13.13
2019-02-07T06:43:46.625Z,10.17
2019-02-07T06:49:09.317Z,9.93
2019-02-07T06:54:33.350Z,12.80
2019-02-07T06:59:50.088Z,14.70
2019-02-07T07:05:02.948Z,11.80
2019-02-07T07:10:21.807Z,13.33
2019-02-07T07:15:41.164Z,12.87
2019-02-07T07:21:15.713Z,13.57
2019-02-07T07:26:42.403Z,12.50
2019-02-07T07:38:17.763Z,14.07
2019-02-07T07:43:44.837Z,14.13
